Robertsville, Missouri
Current Conditions -  °F | °C
As of 4:15 PM on Thursday 18 Dec 2014 (Local Time) from KFYG Reporting Station
Haze Haze  
Wind Chill: 32°   Ceiling: 1000
Heat Index: 32°   Visibility: 4mi
Dew Point: 30°   Wind: 3mph
Humidity: 93%   Direction: 80°E
Pressure: 30.23"   Gusts: NA
Location:  38.41°N, 90.81°W
Report Text: KFYG 182215Z AUTO 08003KT 4SM BR BKN010 OVC029 00/M01 A3023 RMK AO2
Loading
Personal Weather Stations






























Interactive Weather Map New forecast layout! Learn more

10-Day Weather Forecast

Advertisements
Track Severe Weather on mobile